createdAt,value
2019-04-14T00:02:07.382Z,7.43
2019-04-14T00:04:45.034Z,4.83
2019-04-14T00:07:16.635Z,5.37
2019-04-14T00:09:47.590Z,8.43
2019-04-14T00:12:18.757Z,7.80
2019-04-14T00:14:49.778Z,8.07
2019-04-14T00:17:21.635Z,5.10
2019-04-14T00:19:52.713Z,6.63
2019-04-14T00:22:27.472Z,5.53
2019-04-14T00:24:57.524Z,8.10
2019-04-14T00:27:30.080Z,7.27
2019-04-14T00:30:01.157Z,7.10
2019-04-14T00:32:37.899Z,8.30
2019-04-14T00:35:18.788Z,6.60
2019-04-14T00:38:15.247Z,10.20
2019-04-14T00:41:34.392Z,5.80
2019-04-14T00:44:01.542Z,7.57
2019-04-14T00:46:38.711Z,5.40
2019-04-14T00:49:09.782Z,5.17
2019-04-14T00:51:41.247Z,8.30
2019-04-14T00:54:13.237Z,8.47
2019-04-14T00:56:45.404Z,7.57
2019-04-14T00:59:16.417Z,6.60
2019-04-14T01:01:48.289Z,7.50
2019-04-14T01:04:19.255Z,9.10
2019-04-14T01:06:51.074Z,6.67
2019-04-14T01:09:21.679Z,8.07
2019-04-14T01:11:53.204Z,6.67
2019-04-14T01:14:23.807Z,9.17
2019-04-14T01:16:55.856Z,6.40
2019-04-14T01:19:26.962Z,7.23
2019-04-14T01:21:57.373Z,6.67
2019-04-14T01:24:29.213Z,5.60
2019-04-14T01:27:01.611Z,6.77
2019-04-14T01:29:34.106Z,5.37
2019-04-14T01:32:06.602Z,8.23
2019-04-14T01:34:37.549Z,7.30
2019-04-14T01:37:09.380Z,5.73
2019-04-14T01:39:41.497Z,7.97
2019-04-14T01:42:13.711Z,6.67
2019-04-14T01:44:45.970Z,6.77
2019-04-14T01:47:18.184Z,5.70
2019-04-14T01:49:50.858Z,6.83
2019-04-14T01:52:43.923Z,6.80
2019-04-14T01:55:33.111Z,4.43
2019-04-14T01:58:14.481Z,6.20
2019-04-14T02:01:08.440Z,6.87
2019-04-14T02:03:39.295Z,6.37
2019-04-14T02:06:11.338Z,5.63
2019-04-14T02:08:43.651Z,7.13
2019-04-14T02:11:14.376Z,6.40
2019-04-14T02:13:46.467Z,5.40
2019-04-14T02:16:25.810Z,8.17
2019-04-14T02:18:52.260Z,6.60
2019-04-14T02:21:23.772Z,5.63
2019-04-14T02:23:54.421Z,4.67
2019-04-14T02:26:26.208Z,5.97
2019-04-14T02:28:57.203Z,7.20
2019-04-14T02:31:56.997Z,4.80
2019-04-14T02:34:34.113Z,7.00
2019-04-14T02:37:08.356Z,5.27
2019-04-14T02:47:48.936Z,4.93
2019-04-14T02:52:26.676Z,5.80
2019-04-14T02:59:59.726Z,9.70
2019-04-14T03:02:30.399Z,7.63
2019-04-14T03:07:37.834Z,8.43
2019-04-14T03:10:01.243Z,7.00
2019-04-14T03:12:41.512Z,7.33
2019-04-14T03:15:17.427Z,6.00
2019-04-14T03:21:30.782Z,4.40
2019-04-14T03:27:13.501Z,5.87
2019-04-14T03:29:43.158Z,7.60
2019-04-14T03:35:09.754Z,8.60
2019-04-14T03:39:51.383Z,5.70
2019-04-14T03:42:37.543Z,7.80
2019-04-14T03:44:59.042Z,8.30
2019-04-14T03:50:09.675Z,8.60
2019-04-14T03:55:02.752Z,5.83
2019-04-14T03:57:17.177Z,8.03
2019-04-14T03:59:47.831Z,6.47
2019-04-14T04:02:18.547Z,8.57
2019-04-14T04:04:49.542Z,7.80
2019-04-14T04:07:21.345Z,8.57
2019-04-14T04:10:00.402Z,8.20
2019-04-14T04:12:31.419Z,8.00
2019-04-14T04:15:02.330Z,8.43
2019-04-14T04:17:49.886Z,8.60
2019-04-14T04:20:32.606Z,7.57
2019-04-14T04:23:25.606Z,7.10
2019-04-14T04:26:08.329Z,7.93
2019-04-14T04:29:07.359Z,7.30
2019-04-14T04:32:14.963Z,7.10
2019-04-14T04:35:04.206Z,8.00
2019-04-14T04:37:39.622Z,7.73
2019-04-14T04:40:20.565Z,11.40
2019-04-14T04:42:52.582Z,8.07
2019-04-14T04:45:25.591Z,7.43
2019-04-14T04:47:57.701Z,8.00
2019-04-14T04:50:28.601Z,7.60
2019-04-14T04:53:00.466Z,6.67
2019-04-14T04:55:30.697Z,7.97
2019-04-14T04:58:01.407Z,9.43
2019-04-14T05:00:33.086Z,7.90
2019-04-14T05:03:05.659Z,7.70
2019-04-14T05:06:13.265Z,5.53
2019-04-14T05:08:50.274Z,7.90
2019-04-14T05:11:27.340Z,7.77
2019-04-14T05:14:00.075Z,8.00
2019-04-14T05:16:32.444Z,10.13
2019-04-14T05:19:15.967Z,7.87
2019-04-14T05:21:36.697Z,7.43
2019-04-14T05:24:09.167Z,8.03
2019-04-14T05:26:41.740Z,8.23
2019-04-14T05:29:12.812Z,7.30
2019-04-14T05:31:44.727Z,7.77
2019-04-14T05:34:15.696Z,6.50
2019-04-14T05:36:47.627Z,7.20
2019-04-14T05:39:19.890Z,9.33
2019-04-14T05:42:00.318Z,10.87
2019-04-14T05:44:23.563Z,7.67
2019-04-14T05:46:55.652Z,7.70
2019-04-14T05:49:36.500Z,11.90
2019-04-14T05:51:59.833Z,8.63
2019-04-14T05:54:31.771Z,7.53
2019-04-14T05:57:02.810Z,8.00
2019-04-14T05:59:33.526Z,6.67
2019-04-14T06:02:04.820Z,7.13
2019-04-14T06:04:35.767Z,7.77
2019-04-14T06:07:06.758Z,8.73
2019-04-14T06:09:37.908Z,7.50
2019-04-14T06:12:08.308Z,6.53
2019-04-14T06:14:38.834Z,7.97
2019-04-14T06:17:09.520Z,7.60
2019-04-14T06:19:40.859Z,6.50
2019-04-14T06:22:11.400Z,8.47
2019-04-14T06:24:42.539Z,6.50
2019-04-14T06:27:13.688Z,7.93
2019-04-14T06:29:44.288Z,7.10
2019-04-14T06:32:48.546Z,8.33
2019-04-14T06:35:50.018Z,8.17
2019-04-14T06:38:27.426Z,5.37
2019-04-14T06:41:01.247Z,6.10
2019-04-14T06:43:31.898Z,7.10
2019-04-14T06:46:03.211Z,8.13
2019-04-14T06:48:34.032Z,7.47
2019-04-14T06:51:04.295Z,11.53
2019-04-14T06:53:35.445Z,6.00
2019-04-14T06:56:06.774Z,9.67
2019-04-14T06:58:39.159Z,7.63
2019-04-14T07:01:10.311Z,9.00
2019-04-14T07:03:41.653Z,6.67
2019-04-14T07:06:12.519Z,9.20
2019-04-14T07:08:43.245Z,5.70
2019-04-14T07:11:13.671Z,9.60
2019-04-14T07:13:47.853Z,9.63
2019-04-14T07:16:16.792Z,8.47
2019-04-14T07:18:47.313Z,7.50
2019-04-14T07:21:18.199Z,8.93
2019-04-14T07:23:49.411Z,7.70
2019-04-14T07:26:20.036Z,6.77
2019-04-14T07:28:56.547Z,9.00
2019-04-14T07:31:51.731Z,5.10
2019-04-14T07:34:42.079Z,7.80
2019-04-14T07:37:30.675Z,6.80
2019-04-14T07:40:29.286Z,7.07
2019-04-14T07:43:14.077Z,6.93
2019-04-14T07:46:02.499Z,6.33
2019-04-14T07:48:37.672Z,7.57
2019-04-14T07:51:23.628Z,6.60
2019-04-14T07:54:07.069Z,9.87
2019-04-14T07:56:54.408Z,8.90
2019-04-14T07:59:38.772Z,6.80
2019-04-14T08:02:34.453Z,7.97
2019-04-14T08:05:08.556Z,7.10
2019-04-14T08:07:39.358Z,4.00
2019-04-14T08:10:10.219Z,7.33
2019-04-14T08:12:40.616Z,6.50
2019-04-14T08:15:12.500Z,6.83
2019-04-14T08:17:43.719Z,4.43
2019-04-14T08:20:26.899Z,7.17
2019-04-14T08:22:49.345Z,5.60
2019-04-14T08:25:20.237Z,6.20
2019-04-14T08:27:51.136Z,5.03
2019-04-14T08:30:22.149Z,7.27
2019-04-14T08:32:52.766Z,8.10
2019-04-14T08:35:23.756Z,10.77
2019-04-14T08:38:06.555Z,6.53
2019-04-14T08:40:41.678Z,8.88
2019-04-14T08:43:40.882Z,6.97
2019-04-14T08:46:18.231Z,8.55
2019-04-14T08:49:06.858Z,9.70
2019-04-14T08:52:03.267Z,8.50
2019-04-14T08:54:48.864Z,8.35
2019-04-14T08:57:48.171Z,9.10
2019-04-14T09:00:38.568Z,8.00
2019-04-14T09:03:27.346Z,8.55
2019-04-14T09:06:06.062Z,9.20
2019-04-14T09:08:46.656Z,8.68
2019-04-14T09:11:20.998Z,8.38
2019-04-14T09:13:51.518Z,9.25
2019-04-14T09:16:26.473Z,7.30
2019-04-14T09:19:07.155Z,7.40
2019-04-14T09:21:30.072Z,7.50
2019-04-14T09:24:01.708Z,9.03
2019-04-14T09:26:32.650Z,8.77
2019-04-14T09:29:03.776Z,6.70
2019-04-14T09:31:34.276Z,7.77
2019-04-14T09:34:04.794Z,7.58
2019-04-14T09:36:35.438Z,8.63
2019-04-14T09:39:08.134Z,8.30
2019-04-14T09:41:41.583Z,6.27
2019-04-14T09:44:12.451Z,7.37
2019-04-14T09:46:42.640Z,7.87
2019-04-14T09:49:13.530Z,8.87
2019-04-14T09:51:44.941Z,8.27
2019-04-14T09:54:15.546Z,7.80
2019-04-14T09:56:45.796Z,7.10
2019-04-14T09:59:15.870Z,6.73
2019-04-14T10:01:46.544Z,7.13
2019-04-14T10:04:17.134Z,7.67
2019-04-14T10:06:48.119Z,7.43
2019-04-14T10:09:19.092Z,7.40
2019-04-14T10:11:52.903Z,9.00
2019-04-14T10:14:22.294Z,7.57
2019-04-14T10:16:52.299Z,8.80
2019-04-14T10:19:23.054Z,8.13
2019-04-14T10:21:53.974Z,7.67
2019-04-14T10:24:24.088Z,8.70
2019-04-14T10:26:54.417Z,8.27
2019-04-14T10:29:24.952Z,6.30
2019-04-14T10:31:55.837Z,19.67
2019-04-14T10:34:28.169Z,8.77
2019-04-14T10:36:58.714Z,7.30
2019-04-14T10:39:29.401Z,8.63
2019-04-14T10:42:00.121Z,8.03
2019-04-14T10:44:30.861Z,13.87
2019-04-14T10:47:02.217Z,12.90
2019-04-14T10:49:32.979Z,10.17
2019-04-14T10:52:03.410Z,11.33
2019-04-14T10:54:34.033Z,9.53
2019-04-14T10:57:03.859Z,12.23
2019-04-14T10:59:35.061Z,9.40
2019-04-14T11:02:05.493Z,13.80
2019-04-14T11:04:36.562Z,10.03
2019-04-14T11:07:14.165Z,6.30
2019-04-14T11:09:44.813Z,7.23
2019-04-14T11:12:15.185Z,20.90
2019-04-14T11:14:45.817Z,7.37
2019-04-14T11:17:16.399Z,7.27
2019-04-14T11:19:48.459Z,13.10
2019-04-14T11:22:18.798Z,7.37
2019-04-14T11:24:49.229Z,8.10
2019-04-14T11:27:19.769Z,7.70
2019-04-14T11:29:53.966Z,8.80
2019-04-14T11:32:41.265Z,7.90
2019-04-14T11:35:42.712Z,7.73
2019-04-14T11:38:16.524Z,8.73
2019-04-14T11:40:49.571Z,5.87
2019-04-14T11:43:20.275Z,9.63
2019-04-14T11:45:51.075Z,7.07
2019-04-14T11:48:21.580Z,7.73
2019-04-14T11:50:52.176Z,5.90
2019-04-14T11:53:22.648Z,6.20
2019-04-14T11:55:53.384Z,6.70
2019-04-14T11:58:23.920Z,7.20
2019-04-14T12:01:07.974Z,7.80
2019-04-14T12:03:52.836Z,6.87
2019-04-14T12:06:42.646Z,10.00
2019-04-14T12:09:22.404Z,7.77
2019-04-14T12:11:53.114Z,7.83
2019-04-14T12:14:24.470Z,11.40
2019-04-14T12:16:54.745Z,5.93
2019-04-14T12:19:25.518Z,9.10
2019-04-14T12:22:07.710Z,7.97
2019-04-14T12:24:28.612Z,6.73
2019-04-14T12:26:58.882Z,7.10
2019-04-14T12:29:30.477Z,11.07
2019-04-14T12:32:02.297Z,8.00
2019-04-14T12:34:44.130Z,17.97
2019-04-14T12:37:06.637Z,8.23
2019-04-14T12:39:37.199Z,6.80
2019-04-14T12:42:26.725Z,6.20
2019-04-14T12:45:15.039Z,9.40
2019-04-14T12:47:57.328Z,20.20
2019-04-14T12:50:31.854Z,13.60
2019-04-14T12:53:02.416Z,6.83
2019-04-14T12:55:33.018Z,6.43
2019-04-14T12:58:04.456Z,6.40
2019-04-14T13:00:48.027Z,8.63
2019-04-14T13:03:19.609Z,5.70
2019-04-14T13:05:50.017Z,5.77
2019-04-14T13:08:20.524Z,5.80
2019-04-14T13:10:51.171Z,5.83
2019-04-14T13:13:21.220Z,5.97
2019-04-14T13:15:52.183Z,5.60
2019-04-14T13:18:23.184Z,5.67
2019-04-14T13:20:53.725Z,4.67
2019-04-14T13:23:24.660Z,4.97
2019-04-14T13:25:55.403Z,6.00
2019-04-14T13:28:25.726Z,7.40
2019-04-14T13:30:56.160Z,6.30
2019-04-14T13:33:27.154Z,5.17
2019-04-14T13:35:57.495Z,5.67
2019-04-14T13:38:28.554Z,6.50
2019-04-14T13:40:59.368Z,4.33
2019-04-14T13:43:30.161Z,5.50
2019-04-14T13:46:00.691Z,4.53
2019-04-14T13:48:31.314Z,6.00
2019-04-14T13:51:01.570Z,5.60
2019-04-14T13:53:32.011Z,5.97
2019-04-14T13:56:02.988Z,6.77
2019-04-14T13:58:33.765Z,4.93
2019-04-14T14:01:04.551Z,5.30
2019-04-14T14:03:35.865Z,5.80
2019-04-14T14:06:06.477Z,6.07
2019-04-14T14:08:37.627Z,7.33
2019-04-14T14:11:23.645Z,6.10
2019-04-14T14:14:02.917Z,6.20
2019-04-14T14:16:55.796Z,7.07
2019-04-14T14:19:30.223Z,6.70
2019-04-14T14:22:20.455Z,6.80
2019-04-14T14:24:59.113Z,5.70
2019-04-14T14:27:30.132Z,6.73
2019-04-14T14:30:00.847Z,5.90
2019-04-14T14:32:33.839Z,5.73
2019-04-14T14:35:05.279Z,5.93
2019-04-14T14:37:36.753Z,7.00
2019-04-14T14:40:08.797Z,4.80
2019-04-14T14:42:39.015Z,5.03
2019-04-14T14:45:17.707Z,4.93
2019-04-14T14:47:59.539Z,6.10
2019-04-14T14:50:35.703Z,12.17
2019-04-14T14:53:11.923Z,13.17
2019-04-14T14:55:38.559Z,19.57
2019-04-14T14:58:10.121Z,15.67
2019-04-14T15:00:41.713Z,17.53
2019-04-14T15:03:13.033Z,11.80
2019-04-14T15:05:43.302Z,8.87
2019-04-14T15:08:13.690Z,10.67
2019-04-14T15:10:44.226Z,14.87
2019-04-14T15:13:15.573Z,12.67
2019-04-14T15:15:46.579Z,23.40
2019-04-14T15:18:17.211Z,7.20
2019-04-14T15:20:48.866Z,10.50
2019-04-14T15:23:25.040Z,11.90
2019-04-14T15:25:51.733Z,14.00
2019-04-14T15:28:22.373Z,9.60
2019-04-14T15:30:52.144Z,5.77
2019-04-14T15:33:23.503Z,4.20
2019-04-14T15:35:54.402Z,6.27
2019-04-14T15:38:24.962Z,9.20
2019-04-14T15:40:55.755Z,7.37
2019-04-14T15:43:26.441Z,9.00
2019-04-14T15:45:57.423Z,6.47
2019-04-14T15:48:27.907Z,7.50
2019-04-14T15:50:58.063Z,3.83
2019-04-14T15:53:37.738Z,4.80
2019-04-14T15:56:02.434Z,6.03
2019-04-14T15:58:44.004Z,7.70
2019-04-14T16:01:37.096Z,7.10
2019-04-14T16:04:42.036Z,8.20
2019-04-14T16:07:40.836Z,6.90
2019-04-14T16:10:48.838Z,5.17
2019-04-14T16:13:26.508Z,9.47
2019-04-14T16:16:03.014Z,9.57
2019-04-14T16:19:05.039Z,3.93
2019-04-14T16:21:35.662Z,4.70
2019-04-14T16:24:06.572Z,7.53
2019-04-14T16:26:51.670Z,3.97
2019-04-14T16:29:44.242Z,5.60
2019-04-14T16:32:45.814Z,6.60
2019-04-14T16:35:20.384Z,3.70
2019-04-14T16:37:51.316Z,3.60
2019-04-14T16:40:22.326Z,4.47
2019-04-14T16:42:53.426Z,4.47
2019-04-14T16:45:26.124Z,5.47
2019-04-14T16:47:57.363Z,4.20
2019-04-14T16:50:28.003Z,3.50
2019-04-14T16:53:04.162Z,4.33
2019-04-14T16:55:56.811Z,4.40
2019-04-14T16:58:36.637Z,3.07
2019-04-14T17:01:13.257Z,4.10
2019-04-14T17:03:43.389Z,3.97
2019-04-14T17:06:14.323Z,5.50
2019-04-14T17:08:45.387Z,3.20
2019-04-14T17:11:16.393Z,3.33
2019-04-14T17:13:54.304Z,3.47
2019-04-14T17:16:36.512Z,4.50
2019-04-14T17:19:21.794Z,2.83
2019-04-14T17:22:01.299Z,4.50
2019-04-14T17:24:51.125Z,4.47
2019-04-14T17:27:31.073Z,3.73
2019-04-14T17:30:18.865Z,3.20
2019-04-14T17:33:07.434Z,4.60
2019-04-14T17:35:58.599Z,3.70
2019-04-14T17:38:40.393Z,3.93
2019-04-14T17:41:42.271Z,4.63
2019-04-14T17:44:34.727Z,4.10
2019-04-14T17:47:12.113Z,2.37
2019-04-14T17:49:53.301Z,4.87
2019-04-14T17:52:29.680Z,2.63
2019-04-14T17:55:06.336Z,4.50
2019-04-14T17:57:56.934Z,3.73
2019-04-14T18:00:48.752Z,3.43
2019-04-14T18:03:41.010Z,3.17
2019-04-14T18:06:22.816Z,3.10
2019-04-14T18:09:11.167Z,2.70
2019-04-14T18:12:18.561Z,4.10
2019-04-14T18:15:07.735Z,1.70
2019-04-14T18:17:56.083Z,4.70
2019-04-14T18:20:36.666Z,4.00
2019-04-14T18:23:08.011Z,3.33
2019-04-14T18:25:39.173Z,3.20
2019-04-14T18:28:34.687Z,4.47
2019-04-14T18:31:15.879Z,2.87
2019-04-14T18:34:08.927Z,3.43
2019-04-14T18:36:44.990Z,4.40
2019-04-14T18:39:32.461Z,3.40
2019-04-14T18:42:12.851Z,3.20
2019-04-14T18:45:17.629Z,2.97
2019-04-14T18:47:52.656Z,5.30
2019-04-14T18:50:41.014Z,2.30
2019-04-14T18:53:15.850Z,4.10
2019-04-14T18:56:06.051Z,3.90
2019-04-14T18:58:41.262Z,3.20
2019-04-14T19:01:17.559Z,4.30
2019-04-14T19:03:48.503Z,3.90
2019-04-14T19:06:19.238Z,2.70
2019-04-14T19:08:52.318Z,2.00
2019-04-14T19:11:47.544Z,4.17
2019-04-14T19:14:22.027Z,3.13
2019-04-14T19:16:59.277Z,5.23
2019-04-14T19:19:30.206Z,4.40
2019-04-14T19:22:01.572Z,3.50
2019-04-14T19:24:32.370Z,5.47
2019-04-14T19:27:03.450Z,4.00
2019-04-14T19:29:34.194Z,2.93
2019-04-14T19:32:04.304Z,2.30
2019-04-14T19:34:35.045Z,3.03
2019-04-14T19:37:05.583Z,2.53
2019-04-14T19:39:36.766Z,3.83
2019-04-14T19:42:07.474Z,3.60
2019-04-14T19:44:38.368Z,3.70
2019-04-14T19:47:09.355Z,4.33
2019-04-14T19:49:40.684Z,4.43
2019-04-14T19:52:11.594Z,2.87
2019-04-14T19:54:42.478Z,3.10
2019-04-14T19:57:13.131Z,6.50
2019-04-14T19:59:44.318Z,4.40
2019-04-14T20:02:15.231Z,4.50
2019-04-14T20:04:45.990Z,5.47
2019-04-14T20:07:16.807Z,5.60
2019-04-14T20:09:47.361Z,3.77
2019-04-14T20:12:18.583Z,4.43
2019-04-14T20:14:49.484Z,3.33
2019-04-14T20:17:43.825Z,5.00
2019-04-14T20:20:31.142Z,4.50
2019-04-14T20:23:19.738Z,5.30
2019-04-14T20:26:08.259Z,5.27
2019-04-14T20:28:48.844Z,4.70
2019-04-14T20:31:39.437Z,4.03
2019-04-14T20:34:10.382Z,3.67
2019-04-14T20:36:41.522Z,2.80
2019-04-14T20:39:15.333Z,4.83
2019-04-14T20:41:46.022Z,2.83
2019-04-14T20:44:16.952Z,3.50
2019-04-14T20:46:47.140Z,2.60
2019-04-14T20:49:17.881Z,4.20
2019-04-14T20:51:48.458Z,4.10
2019-04-14T20:54:19.907Z,1.67
2019-04-14T20:56:50.538Z,3.83
2019-04-14T20:59:20.771Z,3.97
2019-04-14T21:01:57.868Z,2.53
2019-04-14T21:04:47.703Z,2.30
2019-04-14T21:07:46.499Z,3.60
2019-04-14T21:10:21.951Z,2.23
2019-04-14T21:13:18.712Z,1.90
2019-04-14T21:15:56.399Z,2.00
2019-04-14T21:18:48.965Z,2.23
2019-04-14T21:21:27.381Z,3.20
2019-04-14T21:24:11.009Z,2.50
2019-04-14T21:26:48.917Z,2.97
2019-04-14T21:29:37.603Z,0.90
2019-04-14T21:32:15.143Z,1.30
2019-04-14T21:34:49.809Z,1.90
2019-04-14T21:37:36.112Z,2.10
2019-04-14T21:40:16.061Z,2.70
2019-04-14T21:42:46.534Z,1.60
2019-04-14T21:45:16.823Z,2.83
2019-04-14T21:47:48.079Z,2.53
2019-04-14T21:50:19.802Z,1.63
2019-04-14T21:52:51.529Z,2.40
2019-04-14T21:55:23.369Z,1.20
2019-04-14T21:58:13.151Z,2.87
2019-04-14T22:01:52.710Z,0.80
2019-04-14T22:05:01.563Z,2.40
2019-04-14T22:07:54.645Z,1.70
2019-04-14T22:10:36.608Z,1.57
2019-04-14T22:13:07.978Z,2.73
2019-04-14T22:15:39.955Z,1.27
2019-04-14T22:18:11.891Z,2.17
2019-04-14T22:20:42.626Z,1.77
2019-04-14T22:23:13.083Z,1.47
2019-04-14T22:25:43.487Z,1.80
2019-04-14T22:28:14.436Z,2.87
2019-04-14T22:30:45.312Z,3.33
2019-04-14T22:33:16.266Z,2.00
2019-04-14T22:35:47.069Z,2.27
2019-04-14T22:38:18.213Z,1.43
2019-04-14T22:40:48.946Z,2.40
2019-04-14T22:43:19.507Z,1.47
2019-04-14T22:45:50.442Z,1.40
2019-04-14T22:48:21.167Z,1.90
2019-04-14T22:50:53.137Z,1.37
2019-04-14T22:53:25.506Z,1.87
2019-04-14T22:55:56.618Z,2.87
2019-04-14T22:58:27.604Z,1.90
2019-04-14T23:01:06.033Z,1.20
2019-04-14T23:03:54.908Z,2.57
2019-04-14T23:06:48.764Z,1.80
2019-04-14T23:09:36.878Z,0.93
2019-04-14T23:12:27.506Z,1.17
2019-04-14T23:15:25.888Z,1.83
2019-04-14T23:18:03.610Z,1.40
2019-04-14T23:20:48.419Z,2.10
2019-04-14T23:23:33.761Z,1.03
2019-04-14T23:26:03.998Z,1.43
2019-04-14T23:28:35.230Z,1.90
2019-04-14T23:31:06.190Z,2.90
2019-04-14T23:33:36.366Z,2.10
2019-04-14T23:36:06.810Z,2.20
2019-04-14T23:38:37.567Z,2.57
2019-04-14T23:41:08.311Z,2.20
2019-04-14T23:43:38.767Z,2.23
2019-04-14T23:46:09.173Z,2.43
2019-04-14T23:48:40.062Z,2.23
2019-04-14T23:51:11.047Z,1.90
2019-04-14T23:53:42.214Z,2.17
2019-04-14T23:56:13.100Z,1.90
2019-04-14T23:58:43.608Z,2.03
